Time;durP1;ratioP1;P1;durP2;ratioP2;P2;SDS_P1;SDS_P2;PMS_P1;PMS_P2;Temp;Humidity;BMP_temperature;BMP_pressure;BME280_temperature;BME280_humidity;BME280_pressure;Samples;Min_cycle;Max_cycle;Signal;HPM_P1;HPM_P2
2022/09/20 00:00:43;;;;;;;5.28;1.88;;;;;;;8.70;100.00;97127.41;5013110;28;20033;-66
2022/09/20 00:03:10;;;;;;;4.68;1.70;;;;;;;8.54;100.00;97121.84;5031276;28;20026;-65
2022/09/20 00:05:38;;;;;;;5.38;1.50;;;;;;;8.32;100.00;97126.59;5030851;28;20471;-64
2022/09/20 00:08:05;;;;;;;4.43;1.70;;;;;;;8.29;100.00;97126.50;5032925;28;20026;-64
2022/09/20 00:10:38;;;;;;;2.67;1.50;;;;;;;8.41;100.00;97110.13;5041290;28;20540;-65
2022/09/20 00:13:05;;;;;;;4.80;1.67;;;;;;;8.46;100.00;97123.53;5029937;28;20512;-65
2022/09/20 00:15:32;;;;;;;4.35;1.52;;;;;;;8.53;100.00;97128.44;5039203;28;20049;-64
2022/09/20 00:17:57;;;;;;;7.43;1.80;;;;;;;8.56;100.00;97125.81;5032309;28;20036;-65
2022/09/20 00:20:23;;;;;;;2.10;1.50;;;;;;;8.46;100.00;97123.53;5012341;28;20026;-64
2022/09/20 00:22:49;;;;;;;3.25;1.50;;;;;;;8.40;100.00;97120.22;5050693;28;20030;-65
2022/09/20 00:25:19;;;;;;;4.63;1.50;;;;;;;8.15;100.00;97129.56;5033041;28;20029;-65
2022/09/20 00:27:45;;;;;;;;;;;;;;;7.79;100.00;97126.41;5036226;28;20056;-65
2022/09/20 00:30:11;;;;;;;4.00;1.73;;;;;;;7.70;100.00;97124.94;5036185;28;20378;-65
2022/09/20 00:32:37;;;;;;;5.72;1.90;;;;;;;7.47;100.00;97123.41;5029929;28;20033;-65
2022/09/20 00:35:06;;;;;;;4.00;1.70;;;;;;;7.13;100.00;97127.25;5029451;28;20397;-65
2022/09/20 00:37:32;;;;;;;2.77;1.87;;;;;;;6.93;100.00;97120.66;5035548;28;20049;-65
2022/09/20 00:39:58;;;;;;;8.77;2.35;;;;;;;6.81;100.00;97115.16;5038762;28;20100;-65
2022/09/20 00:42:28;;;;;;;4.57;2.15;;;;;;;6.89;100.00;97120.53;5031245;28;20064;-65
2022/09/20 00:44:58;;;;;;;3.00;2.13;;;;;;;7.14;100.00;97120.66;5034569;28;20130;-65
2022/09/20 00:47:37;;;;;;;7.45;2.10;;;;;;;7.14;100.00;97117.94;5033328;28;20029;-65
2022/09/20 00:50:20;;;;;;;5.20;2.08;;;;;;;7.12;100.00;97113.94;5028466;28;20029;-65
2022/09/20 00:52:50;;;;;;;3.95;2.08;;;;;;;7.09;100.00;97109.94;5034194;28;20041;-65
2022/09/20 00:55:17;;;;;;;4.97;1.90;;;;;;;7.33;100.00;97105.72;5033196;28;20037;-65
2022/09/20 00:57:43;;;;;;;5.50;2.17;;;;;;;7.55;100.00;97108.09;5042199;28;20537;-65
2022/09/20 01:00:10;;;;;;;6.22;2.00;;;;;;;7.63;100.00;97099.03;5034003;28;20654;-65
2022/09/20 01:02:40;;;;;;;4.43;1.77;;;;;;;7.63;100.00;97100.94;5034146;28;20030;-65
2022/09/20 01:05:09;;;;;;;4.93;1.88;;;;;;;7.53;100.00;97106.84;5033639;28;20075;-64
2022/09/20 01:07:35;;;;;;;4.70;1.65;;;;;;;7.38;100.00;97103.63;5014640;28;20033;-64
2022/09/20 01:10:00;;;;;;;3.92;1.70;;;;;;;6.92;100.00;97091.06;5041850;28;20252;-65
2022/09/20 01:12:29;;;;;;;4.60;1.80;;;;;;;6.41;100.00;97094.59;5034108;28;20104;-65
2022/09/20 01:14:57;;;;;;;5.50;2.10;;;;;;;6.14;100.00;97101.31;5034072;28;20121;-65
2022/09/20 01:17:26;;;;;;;5.47;2.30;;;;;;;6.07;100.00;97099.09;5017327;28;20148;-64
2022/09/20 01:20:11;;;;;;;4.68;2.40;;;;;;;6.07;100.00;97096.38;5033262;28;20036;-65
2022/09/20 01:22:59;;;;;;;5.30;2.30;;;;;;;6.16;100.00;97099.06;5040096;28;20080;-65
2022/09/20 01:25:46;;;;;;;5.13;2.50;;;;;;;6.46;100.00;97094.44;5033164;28;20513;-64
2022/09/20 01:28:12;;;;;;;4.20;2.00;;;;;;;6.66;100.00;97092.03;4999246;28;20037;-64
2022/09/20 01:30:44;;;;;;;8.48;2.10;;;;;;;6.88;100.00;97093.66;5033793;28;20037;-64
2022/09/20 01:33:13;;;;;;;7.47;2.20;;;;;;;6.94;100.00;97094.25;5043251;28;20029;-64
2022/09/20 01:35:43;;;;;;;3.92;2.00;;;;;;;6.97;100.00;97097.09;5034220;28;20030;-64
2022/09/20 01:38:30;;;;;;;6.07;2.00;;;;;;;7.11;100.00;97080.44;5050769;28;20030;-63
2022/09/20 01:41:18;;;;;;;8.77;2.13;;;;;;;7.13;100.00;97085.56;5038393;28;20568;-64
2022/09/20 01:44:08;;;;;;;4.25;1.65;;;;;;;7.12;100.00;97084.00;5040211;28;20052;-64
2022/09/20 01:46:35;;;;;;;6.35;1.90;;;;;;;7.13;100.00;97082.84;5054982;28;20094;-64
2022/09/20 01:49:39;;;;;;;4.22;1.70;;;;;;;6.97;100.00;97088.09;5046644;28;20041;-64
2022/09/20 01:52:22;;;;;;;4.90;2.45;;;;;;;6.69;100.00;97085.94;5037472;28;20057;-64
2022/09/20 01:55:18;;;;;;;7.20;2.13;;;;;;;6.42;100.00;97085.31;5053556;28;20032;-64
2022/09/20 01:58:06;;;;;;;3.00;1.63;;;;;;;6.47;100.00;97085.13;5053092;28;20029;-64
2022/09/20 02:00:33;;;;;;;3.70;1.80;;;;;;;6.54;100.00;97089.25;5053119;28;20047;-64
2022/09/20 02:03:23;;;;;;;3.58;1.92;;;;;;;6.39;100.00;97090.59;5048879;28;20025;-64
2022/09/20 02:05:55;;;;;;;5.40;2.00;;;;;;;6.27;100.00;97092.13;5031535;28;20037;-64
2022/09/20 02:08:40;;;;;;;4.63;1.92;;;;;;;6.32;100.00;97085.72;5023013;28;20037;-65
2022/09/20 02:11:17;;;;;;;4.38;1.98;;;;;;;6.53;100.00;97085.72;5032314;28;20050;-64
2022/09/20 02:14:15;;;;;;;2.83;1.77;;;;;;;6.50;100.00;97084.47;5032700;28;20053;-64
2022/09/20 02:16:49;;;;;;;2.10;1.48;;;;;;;6.56;100.00;97089.72;5014671;28;20502;-64
2022/09/20 02:19:26;;;;;;;4.25;1.90;;;;;;;6.59;100.00;97087.13;5038325;28;20473;-64
2022/09/20 02:22:10;;;;;;;5.10;1.75;;;;;;;6.54;100.00;97092.75;5012767;28;20034;-65
2022/09/20 02:24:56;;;;;;;9.02;2.17;;;;;;;6.53;100.00;97088.44;5012515;28;20034;-64
2022/09/20 02:27:31;;;;;;;4.28;1.40;;;;;;;6.45;100.00;97084.66;4994817;28;20080;-65
2022/09/20 02:30:14;;;;;;;5.25;1.63;;;;;;;6.16;100.00;97093.63;5012441;28;20472;-64
2022/09/20 02:33:01;;;;;;;7.22;1.63;;;;;;;6.09;100.00;97091.41;5005630;28;20360;-64
2022/09/20 02:35:45;;;;;;;5.78;1.83;;;;;;;6.15;100.00;97089.31;5011048;28;20033;-64
2022/09/20 02:38:35;;;;;;;4.95;1.70;;;;;;;6.24;100.00;97091.97;5012501;28;20026;-64
2022/09/20 02:41:09;;;;;;;3.55;2.15;;;;;;;6.25;100.00;97082.72;4999649;28;20080;-64
2022/09/20 02:43:47;;;;;;;3.80;1.77;;;;;;;6.24;100.00;97087.34;4997976;28;20025;-65
2022/09/20 02:46:19;;;;;;;5.57;1.70;;;;;;;6.20;100.00;97091.84;5031981;28;20033;-64
2022/09/20 02:48:53;;;;;;;7.50;1.75;;;;;;;6.29;100.00;97094.53;5032626;28;20480;-64
2022/09/20 02:51:38;;;;;;;3.45;1.77;;;;;;;6.11;100.00;97091.09;5040563;28;20029;-64
2022/09/20 02:54:45;;;;;;;5.70;1.60;;;;;;;5.75;100.00;97087.69;5031932;28;20041;-64
2022/09/20 02:57:18;;;;;;;6.68;1.58;;;;;;;5.64;100.00;97094.59;5011224;28;20099;-64
2022/09/20 03:00:00;;;;;;;4.13;1.50;;;;;;;5.82;100.00;97097.28;5016374;28;20033;-64
2022/09/20 03:02:38;;;;;;;3.55;2.00;;;;;;;6.00;100.00;97100.75;5052061;28;20024;-64
2022/09/20 03:05:08;;;;;;;3.97;2.40;;;;;;;6.05;100.00;97101.38;5034048;28;20402;-64
2022/09/20 03:07:55;;;;;;;2.13;1.45;;;;;;;5.94;100.00;97102.81;5035056;28;20033;-65
2022/09/20 03:10:27;;;;;;;5.50;1.73;;;;;;;5.70;100.00;97106.09;5018717;28;20108;-64
2022/09/20 03:13:26;;;;;;;4.00;1.88;;;;;;;5.58;100.00;97101.31;5033419;28;20030;-63
2022/09/20 03:16:01;;;;;;;;;;;;;;;5.69;100.00;97107.22;5018534;28;20446;-64
2022/09/20 03:18:59;;;;;;;4.57;1.80;;;;;;;5.85;100.00;97105.56;5034582;28;19909;-64
2022/09/20 03:21:52;;;;;;;4.65;2.40;;;;;;;5.94;100.00;97106.34;5033359;28;20052;-65
2022/09/20 03:24:55;;;;;;;4.38;2.40;;;;;;;6.03;100.00;97110.97;5044745;28;20036;-64
2022/09/20 03:27:58;;;;;;;3.35;1.58;;;;;;;6.07;100.00;97120.06;5034100;28;20036;-64
2022/09/20 03:30:27;;;;;;;4.00;1.70;;;;;;;5.97;100.00;97115.78;5050136;28;20036;-64
2022/09/20 03:33:12;;;;;;;;;;;;;;;5.81;100.00;97114.69;5052128;28;20075;-64
2022/09/20 03:36:08;;;;;;;2.67;1.55;;;;;;;5.69;100.00;97115.34;5037699;28;19913;-64
2022/09/20 03:38:52;;;;;;;4.53;1.60;;;;;;;5.39;100.00;97118.00;5049077;28;20025;-64
2022/09/20 03:41:29;;;;;;;6.45;1.90;;;;;;;5.23;100.00;97117.69;5033378;28;20033;-64
2022/09/20 03:43:55;;;;;;;3.83;1.88;;;;;;;5.04;100.00;97109.91;5051351;28;20029;-65
2022/09/20 03:46:47;;;;;;;4.75;1.90;;;;;;;4.90;100.00;97107.34;5050863;28;20143;-65
2022/09/20 03:49:34;;;;;;;3.67;1.80;;;;;;;4.83;100.00;97114.38;5046006;28;20455;-65
2022/09/20 03:52:27;;;;;;;4.55;3.45;;;;;;;4.87;100.00;97116.13;5037170;28;20029;-63
2022/09/20 03:55:08;;;;;;;3.45;2.10;;;;;;;5.20;100.00;97122.97;5055146;28;20044;-65
2022/09/20 03:58:00;;;;;;;8.73;2.00;;;;;;;5.40;100.00;97125.00;5033552;28;20122;-65
2022/09/20 04:00:59;;;;;;;3.50;1.55;;;;;;;5.53;100.00;97113.19;5021197;28;20473;-65
2022/09/20 04:03:44;;;;;;;4.75;2.08;;;;;;;5.54;100.00;97109.31;5044228;28;20021;-64
2022/09/20 04:06:31;;;;;;;5.78;2.03;;;;;;;5.58;100.00;97111.41;5014011;28;20029;-65
2022/09/20 04:09:05;;;;;;;5.65;1.75;;;;;;;5.40;100.00;97110.63;5036429;28;20033;-64
2022/09/20 04:11:43;;;;;;;5.40;1.88;;;;;;;5.41;100.00;97107.59;5036968;28;20466;-64
2022/09/20 04:14:40;;;;;;;4.40;1.90;;;;;;;5.39;100.00;97103.63;5036090;28;20030;-66
2022/09/20 04:17:43;;;;;;;5.13;1.75;;;;;;;5.10;100.00;97114.03;5031355;28;20042;-64
2022/09/20 04:20:49;;;;;;;2.50;1.52;;;;;;;4.71;100.00;97117.72;5028421;28;20394;-64
2022/09/20 04:23:39;;;;;;;6.85;2.08;;;;;;;4.47;100.00;97110.81;5015595;28;20049;-63
2022/09/20 04:26:05;;;;;;;5.82;1.88;;;;;;;4.33;100.00;97119.06;5055186;28;20029;-64
2022/09/20 04:28:43;;;;;;;3.92;1.90;;;;;;;4.27;100.00;97117.63;5038185;28;20037;-65
2022/09/20 04:31:26;;;;;;;3.53;1.95;;;;;;;4.20;100.00;97125.44;5023073;28;20037;-64
2022/09/20 04:33:54;;;;;;;3.67;2.22;;;;;;;4.13;100.00;97127.81;5016446;28;20398;-66
2022/09/20 04:36:51;;;;;;;11.98;2.33;;;;;;;4.07;100.00;97120.91;5033825;28;20040;-65
2022/09/20 04:39:25;;;;;;;6.38;2.20;;;;;;;4.21;100.00;97121.59;5031086;28;20033;-66
2022/09/20 04:42:14;;;;;;;7.57;2.03;;;;;;;4.34;100.00;97120.69;5044936;28;20036;-66
2022/09/20 04:45:08;;;;;;;3.90;2.45;;;;;;;4.36;100.00;97129.31;5025330;28;20803;-66
2022/09/20 04:47:39;;;;;;;3.90;1.95;;;;;;;4.28;100.00;97118.44;5038036;28;20350;-65
2022/09/20 04:50:23;;;;;;;2.97;1.92;;;;;;;4.16;100.00;97129.88;5047812;28;20033;-64
2022/09/20 04:53:14;;;;;;;5.70;2.50;;;;;;;4.24;100.00;97129.09;5054456;28;20037;-65
2022/09/20 04:55:53;;;;;;;5.63;2.95;;;;;;;4.53;100.00;97125.81;5051449;28;20029;-65
2022/09/20 04:58:55;;;;;;;5.95;2.95;;;;;;;4.71;100.00;97126.63;5037360;28;20028;-65
2022/09/20 05:02:02;;;;;;;4.50;2.10;;;;;;;4.47;100.00;97131.72;5016846;28;20383;-64
2022/09/20 05:04:52;;;;;;;5.03;2.30;;;;;;;4.29;100.00;97130.88;5013599;28;20464;-66
2022/09/20 05:08:00;;;;;;;5.68;2.25;;;;;;;4.35;100.00;97130.41;5012728;28;20033;-66
2022/09/20 05:10:46;;;;;;;7.45;2.20;;;;;;;4.57;100.00;97126.81;5019000;28;20026;-66
2022/09/20 05:13:43;;;;;;;5.43;2.50;;;;;;;4.50;100.00;97136.50;5039105;28;20685;-66
2022/09/20 05:16:21;;;;;;;5.00;2.10;;;;;;;4.65;100.00;97135.28;5052399;28;20048;-66
2022/09/20 05:19:15;;;;;;;4.72;1.95;;;;;;;4.95;100.00;97138.94;5032397;28;20036;-64
2022/09/20 05:22:17;;;;;;;5.35;2.10;;;;;;;5.31;100.00;97133.19;5034327;28;20036;-66
2022/09/20 05:24:54;;;;;;;4.70;2.40;;;;;;;5.82;100.00;97132.63;5033232;28;20068;-66
2022/09/20 05:27:21;;;;;;;6.38;2.63;;;;;;;6.34;100.00;97142.50;5041417;28;20038;-66
2022/09/20 05:29:46;;;;;;;4.93;2.38;;;;;;;6.81;100.00;97145.13;5032343;28;20034;-66
2022/09/20 05:32:22;;;;;;;4.70;2.03;;;;;;;7.20;100.00;97149.31;5011922;28;20034;-66
2022/09/20 05:34:59;;;;;;;3.40;1.60;;;;;;;7.34;100.00;97153.66;5041853;28;20061;-66
2022/09/20 05:37:59;;;;;;;2.53;1.50;;;;;;;7.20;100.00;97159.38;5033308;28;20552;-66
2022/09/20 05:40:40;;;;;;;7.35;1.98;;;;;;;7.04;100.00;97156.44;5033024;28;20099;-65
2022/09/20 05:43:12;;;;;;;2.65;1.50;;;;;;;6.83;100.00;97159.19;5027475;28;20036;-65
2022/09/20 05:46:05;;;;;;;4.60;1.50;;;;;;;6.76;100.00;97161.63;5033026;28;20043;-65
2022/09/20 05:48:55;;;;;;;4.15;2.22;;;;;;;7.25;100.00;97153.72;5040868;28;20394;-66
2022/09/20 05:51:36;;;;;;;9.75;3.45;;;;;;;8.15;100.00;97152.16;5034623;28;20036;-65
2022/09/20 05:54:28;;;;;;;8.27;3.65;;;;;;;8.67;100.00;97167.09;5032860;28;20033;-67
2022/09/20 05:57:12;;;;;;;8.45;2.88;;;;;;;8.67;100.00;97158.13;5022866;28;20041;-65
2022/09/20 05:59:52;;;;;;;8.52;2.80;;;;;;;9.67;100.00;97152.03;5015572;28;20112;-66
2022/09/20 06:02:48;;;;;;;4.25;2.38;;;;;;;10.87;100.00;97160.88;5031188;28;20486;-66
2022/09/20 06:05:32;;;;;;;4.82;1.73;;;;;;;11.93;100.00;97162.66;5027780;28;20125;-67
2022/09/20 06:08:15;;;;;;;5.10;1.80;;;;;;;13.12;98.96;97165.34;5030577;28;20489;-67
2022/09/20 06:10:50;;;;;;;7.30;1.80;;;;;;;13.79;94.74;97163.06;5058045;28;20041;-66
2022/09/20 06:14:00;;;;;;;6.65;1.67;;;;;;;15.03;84.64;97157.06;5058305;28;20033;-66
2022/09/20 06:17:01;;;;;;;5.28;1.80;;;;;;;14.46;83.74;97162.16;5014203;28;20041;-66
2022/09/20 06:19:31;;;;;;;8.85;1.77;;;;;;;14.03;88.38;97161.75;5015289;28;20118;-68
2022/09/20 06:22:00;;;;;;;;;;;;;;;13.22;93.17;97166.69;5051238;28;20031;-66
2022/09/20 06:24:36;;;;;;;7.75;1.50;;;;;;;13.20;94.63;97153.31;5045163;28;19962;-66
2022/09/20 06:27:07;;;;;;;6.80;1.42;;;;;;;12.65;99.44;97152.91;5035437;28;20100;-67
2022/09/20 06:29:37;;;;;;;10.10;2.15;;;;;;;13.14;94.95;97163.06;5015447;28;20056;-66
2022/09/20 06:32:02;;;;;;;;;;;;;;;13.23;96.36;97160.00;5034735;28;20029;-67
2022/09/20 06:34:28;;;;;;;2.75;1.17;;;;;;;14.88;86.30;97155.41;5046074;28;19913;-67
2022/09/20 06:43:18;;;;;;;2.80;1.02;;;;;;;18.11;68.78;97163.09;5035606;28;20048;-65
2022/09/20 06:45:44;;;;;;;2.47;0.98;;;;;;;18.16;64.18;97168.22;5033684;28;20033;-65
2022/09/20 06:48:11;;;;;;;5.63;1.20;;;;;;;17.58;62.81;97165.69;5032395;28;20036;-65
2022/09/20 06:50:38;;;;;;;3.30;1.10;;;;;;;17.41;63.61;97165.75;5032157;28;20029;-66
2022/09/20 06:53:04;;;;;;;3.33;1.10;;;;;;;18.75;60.13;97164.63;5031926;28;20036;-65
2022/09/20 06:55:36;;;;;;;6.25;1.42;;;;;;;19.39;57.25;97173.53;5035057;28;20033;-65
2022/09/20 06:58:02;;;;;;;6.32;1.38;;;;;;;20.18;54.04;97167.03;5037937;28;20167;-66
2022/09/20 07:00:28;;;;;;;3.35;1.20;;;;;;;20.58;52.45;97170.78;5036219;28;20112;-66
2022/09/20 07:02:55;;;;;;;3.67;1.23;;;;;;;20.81;51.40;97170.06;5014317;28;20058;-66
2022/09/20 07:05:21;;;;;;;6.07;1.58;;;;;;;20.32;53.14;97168.81;5014591;28;20029;-65
2022/09/20 07:07:47;;;;;;;6.43;1.50;;;;;;;21.33;49.87;97174.28;5052863;28;20562;-65
2022/09/20 07:10:13;;;;;;;3.78;1.42;;;;;;;21.67;48.76;97181.63;5044677;28;20395;-64
2022/09/20 07:12:40;;;;;;;6.30;1.48;;;;;;;22.17;47.17;97179.81;5032046;28;20115;-65
2022/09/20 07:15:06;;;;;;;4.32;1.27;;;;;;;21.66;48.03;97182.88;5014239;28;20025;-65
2022/09/20 07:17:32;;;;;;;4.13;1.35;;;;;;;20.39;51.41;97177.06;5028085;28;20044;-67
2022/09/20 07:19:58;;;;;;;7.30;1.52;;;;;;;19.57;53.95;97182.47;5022330;28;20574;-65
2022/09/20 07:22:25;;;;;;;3.30;1.40;;;;;;;18.62;57.58;97192.06;5016299;28;20147;-66
2022/09/20 07:24:50;;;;;;;2.75;1.42;;;;;;;17.41;62.21;97199.78;5022189;28;20048;-65
2022/09/20 07:27:15;;;;;;;3.08;1.73;;;;;;;16.66;66.28;97199.84;5012937;28;20379;-66
2022/09/20 07:29:41;;;;;;;6.43;1.90;;;;;;;16.23;69.77;97195.84;5027132;28;20071;-66
2022/09/20 07:32:06;;;;;;;4.93;1.88;;;;;;;15.90;69.06;97190.63;5026613;28;20034;-66
2022/09/20 07:34:32;;;;;;;3.80;1.70;;;;;;;14.67;79.92;97181.63;5035203;28;20065;-66
2022/09/20 07:36:58;;;;;;;5.93;2.05;;;;;;;15.67;74.03;97195.25;5036102;28;20115;-66
2022/09/20 07:39:25;;;;;;;3.08;1.67;;;;;;;15.75;72.42;97189.78;5010705;28;20054;-66
2022/09/20 07:41:50;;;;;;;6.32;1.88;;;;;;;15.22;76.42;97191.09;5021185;28;20073;-67
2022/09/20 07:44:20;;;;;;;6.85;1.52;;;;;;;16.04;71.59;97190.66;5020492;28;20125;-67
2022/09/20 07:46:52;;;;;;;;;;;;;;;17.92;64.46;97198.44;5020996;28;20491;-66
2022/09/20 07:49:19;;;;;;;13.23;1.98;;;;;;;19.02;58.45;97195.31;4997614;28;19921;-65
2022/09/20 07:51:44;;;;;;;11.70;2.22;;;;;;;19.11;57.21;97200.41;5029113;28;20046;-65
2022/09/20 07:54:10;;;;;;;4.80;1.95;;;;;;;18.76;57.53;97209.78;5031995;28;20054;-64
2022/09/20 07:56:35;;;;;;;16.95;8.93;;;;;;;18.46;59.08;97205.66;5011552;28;20049;-65
2022/09/20 07:59:01;;;;;;;3.92;1.58;;;;;;;18.21;61.18;97205.81;5024006;28;20389;-66
2022/09/20 08:01:26;;;;;;;6.57;1.98;;;;;;;17.41;63.11;97215.59;5022805;28;20111;-64
2022/09/20 08:03:52;;;;;;;4.00;1.67;;;;;;;16.24;71.56;97207.69;5023316;28;20053;-65
2022/09/20 08:06:20;;;;;;;9.80;2.42;;;;;;;17.11;68.18;97209.34;5006679;28;20406;-65
2022/09/20 08:08:46;;;;;;;6.82;1.50;;;;;;;17.26;67.01;97212.09;5005553;28;20082;-65
2022/09/20 08:11:17;;;;;;;10.07;1.80;;;;;;;17.06;66.50;97215.28;5016587;28;20045;-65
2022/09/20 08:13:46;;;;;;;5.10;1.70;;;;;;;17.67;64.11;97217.13;5024816;28;20563;-65
2022/09/20 08:16:12;;;;;;;3.95;1.63;;;;;;;17.41;63.92;97210.84;5025351;28;20110;-65
2022/09/20 08:18:39;;;;;;;6.05;2.00;;;;;;;17.60;65.75;97220.69;5034681;28;20308;-66
2022/09/20 08:21:09;;;;;;;12.02;2.20;;;;;;;17.26;66.90;97217.63;5029637;28;20112;-63
2022/09/20 08:23:34;;;;;;;;;;;;;;;17.19;66.56;97221.19;5026625;28;20092;-65
2022/09/20 08:26:01;;;;;;;6.53;1.92;;;;;;;18.00;64.61;97220.56;5038570;28;20381;-66
2022/09/20 08:28:28;;;;;;;6.05;1.80;;;;;;;18.30;63.95;97222.78;5036068;28;20041;-65
2022/09/20 08:31:00;;;;;;;4.28;1.60;;;;;;;18.89;61.16;97224.81;5025255;28;20037;-65
2022/09/20 08:33:26;;;;;;;5.80;1.52;;;;;;;18.22;61.76;97224.03;5017583;28;20043;-64
2022/09/20 08:35:53;;;;;;;5.78;1.60;;;;;;;18.28;61.44;97222.41;5027447;28;20231;-65
2022/09/20 08:38:21;;;;;;;10.40;1.70;;;;;;;17.93;60.55;97224.97;5022101;28;20068;-65
2022/09/20 08:40:48;;;;;;;4.38;1.65;;;;;;;17.50;61.22;97232.59;5025391;28;20099;-65
2022/09/20 08:43:14;;;;;;;5.15;1.42;;;;;;;17.22;63.60;97231.47;5034357;28;20033;-65
2022/09/20 08:45:40;;;;;;;5.03;1.88;;;;;;;17.05;65.85;97223.97;5028793;28;20148;-65
2022/09/20 08:48:12;;;;;;;7.75;1.83;;;;;;;16.94;65.28;97226.75;5023508;28;20045;-65
2022/09/20 08:50:37;;;;;;;7.15;2.00;;;;;;;16.37;65.54;97228.25;5033430;28;20068;-65
2022/09/20 08:53:03;;;;;;;4.47;1.40;;;;;;;16.34;65.16;97231.78;5022616;28;20136;-64
2022/09/20 08:55:31;;;;;;;7.10;1.73;;;;;;;16.46;63.73;97227.88;5024147;28;20045;-66
2022/09/20 08:57:58;;;;;;;4.57;1.40;;;;;;;16.21;65.17;97225.84;5023839;28;20065;-66
2022/09/20 09:00:35;;;;;;;9.65;1.60;;;;;;;16.19;65.52;97227.44;5027730;28;20117;-66
2022/09/20 09:03:15;;;;;;;7.88;1.77;;;;;;;17.03;60.21;97231.88;5005985;28;20045;-65
2022/09/20 09:05:45;;;;;;;6.57;1.60;;;;;;;16.79;58.52;97228.69;5033187;28;20048;-66
2022/09/20 09:08:17;;;;;;;8.20;1.65;;;;;;;17.42;55.78;97231.81;5020166;28;20041;-67
2022/09/20 09:10:53;;;;;;;8.95;1.65;;;;;;;17.16;57.83;97231.09;5006028;28;20049;-65
2022/09/20 09:13:36;;;;;;;6.40;1.55;;;;;;;18.87;53.84;97224.41;5018636;28;20044;-63
2022/09/20 09:16:11;;;;;;;7.07;1.33;;;;;;;19.50;52.08;97224.22;5023141;28;20033;-65
2022/09/20 09:18:40;;;;;;;6.75;1.83;;;;;;;15.92;62.66;97224.97;5043884;28;20156;-64
2022/09/20 09:21:09;;;;;;;8.10;2.03;;;;;;;15.19;67.46;97224.97;5021982;28;20045;-65
2022/09/20 09:23:40;;;;;;;6.95;1.67;;;;;;;15.38;70.09;97219.16;5044736;28;20083;-66
2022/09/20 09:26:15;;;;;;;3.38;1.13;;;;;;;14.00;73.48;97226.63;5026040;28;20419;-64
2022/09/20 09:28:40;;;;;;;5.30;1.50;;;;;;;13.89;74.35;97226.50;5031869;28;20049;-65
2022/09/20 09:31:24;;;;;;;5.97;1.50;;;;;;;14.03;74.88;97220.38;5000125;28;20043;-64
2022/09/20 09:33:50;;;;;;;7.15;1.55;;;;;;;14.57;67.79;97223.69;5025181;28;20538;-65
2022/09/20 09:36:22;;;;;;;4.10;1.20;;;;;;;15.16;65.62;97218.25;5007108;28;20128;-65
2022/09/20 09:38:48;;;;;;;7.50;1.63;;;;;;;17.39;57.25;97221.53;5036139;28;20123;-65
2022/09/20 09:41:16;;;;;;;5.70;1.30;;;;;;;19.16;52.48;97213.84;5038636;28;20040;-66
2022/09/20 09:43:42;;;;;;;7.43;1.40;;;;;;;16.83;59.54;97204.59;5028698;28;20049;-66
2022/09/20 09:46:25;;;;;;;7.60;1.55;;;;;;;16.93;60.40;97214.88;5023239;28;20037;-64
2022/09/20 09:49:17;;;;;;;9.23;1.60;;;;;;;16.18;60.99;97207.28;5022751;28;20453;-65
2022/09/20 09:51:54;;;;;;;4.70;1.38;;;;;;;18.11;52.96;97213.00;5030830;28;20045;-65
2022/09/20 09:54:23;;;;;;;10.50;1.55;;;;;;;15.70;58.41;97210.28;5021403;28;20038;-64
2022/09/20 09:56:58;;;;;;;4.30;1.23;;;;;;;15.68;60.41;97212.59;5024246;28;20049;-65
2022/09/20 09:59:39;;;;;;;8.65;1.40;;;;;;;16.01;60.50;97205.28;5020318;28;20684;-65
2022/09/20 10:02:05;;;;;;;5.53;1.17;;;;;;;18.10;54.19;97212.22;5019478;28;20037;-64
2022/09/20 10:04:56;;;;;;;7.65;1.30;;;;;;;18.85;51.29;97210.94;5023417;28;20041;-65
2022/09/20 10:07:36;;;;;;;4.65;1.40;;;;;;;17.74;53.05;97206.03;5005294;28;20164;-66
2022/09/20 10:10:24;;;;;;;5.05;1.02;;;;;;;20.47;45.00;97199.97;5022565;28;20081;-64
2022/09/20 10:13:27;;;;;;;3.20;0.85;;;;;;;21.04;41.13;97203.88;5023456;28;20037;-64
2022/09/20 10:16:12;;;;;;;2.78;0.90;;;;;;;20.47;41.35;97200.75;5021744;28;20045;-64
2022/09/20 10:18:51;;;;;;;6.28;1.17;;;;;;;20.57;42.78;97201.81;4990922;28;20045;-66
2022/09/20 10:21:37;;;;;;;6.90;1.17;;;;;;;18.46;46.15;97209.22;5026714;28;20037;-64
2022/09/20 10:24:29;;;;;;;5.85;1.30;;;;;;;18.78;49.59;97207.41;5023940;28;20143;-62
2022/09/20 10:27:03;;;;;;;5.10;1.27;;;;;;;17.95;49.26;97205.16;5035556;28;20379;-65
2022/09/20 10:29:39;;;;;;;4.20;1.17;;;;;;;17.29;52.44;97197.44;5024341;28;20049;-67
2022/09/20 10:32:17;;;;;;;5.50;1.25;;;;;;;15.50;59.13;97201.47;5024390;28;20375;-66
2022/09/20 10:34:58;;;;;;;6.85;1.15;;;;;;;14.39;64.73;97197.94;5025298;28;20045;-67
2022/09/20 10:37:31;;;;;;;6.97;1.60;;;;;;;13.88;65.88;97207.59;5020902;28;20052;-65
2022/09/20 10:40:22;;;;;;;9.88;1.70;;;;;;;13.71;69.25;97198.00;5024565;28;20398;-66
2022/09/20 10:43:15;;;;;;;6.22;1.60;;;;;;;13.67;68.27;97194.41;5058579;28;20036;-66
2022/09/20 10:45:48;;;;;;;6.38;1.58;;;;;;;13.66;72.87;97193.59;5046765;28;20056;-66
2022/09/20 10:48:51;;;;;;;5.63;1.52;;;;;;;13.77;66.15;97202.78;5036651;28;20109;-65
2022/09/20 10:51:24;;;;;;;6.82;1.33;;;;;;;14.92;64.41;97200.34;5013330;28;20059;-65
2022/09/20 10:54:27;;;;;;;3.78;1.13;;;;;;;15.27;59.36;97193.50;5034126;28;20044;-65
2022/09/20 10:57:10;;;;;;;3.65;1.35;;;;;;;13.92;64.26;97189.97;5002808;28;20037;-67
2022/09/20 10:59:54;;;;;;;3.45;1.13;;;;;;;13.90;63.42;97194.25;5041504;28;20045;-66
2022/09/20 11:02:28;;;;;;;4.22;1.55;;;;;;;13.53;63.67;97195.78;5030322;28;20045;-66
2022/09/20 11:04:54;;;;;;;2.85;1.20;;;;;;;13.14;65.84;97196.06;5039898;28;20045;-65
2022/09/20 11:07:36;;;;;;;6.97;1.85;;;;;;;13.53;68.41;97198.56;5033626;28;20049;-67
2022/09/20 11:10:29;;;;;;;5.50;1.38;;;;;;;13.66;67.15;97199.09;5055236;28;20108;-65
2022/09/20 11:13:14;;;;;;;12.25;1.55;;;;;;;14.00;64.57;97193.59;5046351;28;20040;-67
2022/09/20 11:15:52;;;;;;;4.75;1.38;;;;;;;13.51;65.64;97189.88;5043348;28;20469;-67
2022/09/20 11:18:57;;;;;;;8.68;1.40;;;;;;;14.76;60.75;97192.34;5037401;28;20033;-65
2022/09/20 11:21:51;;;;;;;4.35;1.08;;;;;;;15.86;57.16;97193.38;5021019;28;20209;-66
2022/09/20 11:24:16;;;;;;;5.43;0.95;;;;;;;17.14;53.28;97194.72;5017169;28;20091;-65
2022/09/20 11:26:50;;;;;;;3.92;1.20;;;;;;;16.50;53.29;97195.50;5019476;28;20422;-66
2022/09/20 11:29:38;;;;;;;11.05;2.60;;;;;;;14.46;61.62;97190.50;5014790;28;20042;-66
2022/09/20 11:32:16;;;;;;;9.70;2.95;;;;;;;13.76;68.08;97201.19;5016747;28;20071;-62
2022/09/20 11:34:54;;;;;;;9.05;1.95;;;;;;;13.68;67.48;97202.25;5023543;28;20152;-65
2022/09/20 11:37:23;;;;;;;6.93;1.83;;;;;;;13.94;66.06;97198.66;5032423;28;20060;-67
2022/09/20 11:39:54;;;;;;;6.68;2.00;;;;;;;13.69;64.91;97190.09;5042662;28;20037;-66
2022/09/20 11:42:28;;;;;;;9.63;1.60;;;;;;;14.13;64.51;97183.91;5037338;28;20052;-65
2022/09/20 11:44:54;;;;;;;5.38;1.33;;;;;;;14.50;62.28;97194.06;5040257;28;20033;-68
2022/09/20 11:47:25;;;;;;;12.10;4.03;;;;;;;14.30;65.60;97189.97;5033278;28;20040;-65
2022/09/20 11:50:18;;;;;;;4.35;1.60;;;;;;;13.44;71.33;97186.25;5029536;28;20041;-68
2022/09/20 11:52:56;;;;;;;7.25;1.63;;;;;;;13.22;73.13;97196.94;5022212;28;20458;-66
2022/09/20 11:55:51;;;;;;;5.72;1.67;;;;;;;13.00;72.57;97191.13;5025225;28;20038;-64
2022/09/20 11:58:21;;;;;;;5.60;1.77;;;;;;;13.17;73.03;97200.78;5016580;28;20065;-65
2022/09/20 12:00:53;;;;;;;;;;;;;;;13.09;73.46;97187.31;5024227;28;20713;-65
2022/09/20 12:03:36;;;;;;;4.25;1.60;;;;;;;13.24;70.58;97191.06;5024772;28;19913;-64
2022/09/20 12:06:08;;;;;;;6.38;1.85;;;;;;;13.62;68.16;97190.00;5023160;28;20060;-62
2022/09/20 12:08:40;;;;;;;8.50;1.55;;;;;;;13.20;69.03;97191.03;5021518;28;20046;-66
2022/09/20 12:11:12;;;;;;;6.88;1.58;;;;;;;13.81;71.39;97188.25;5039096;28;20146;-66
2022/09/20 12:13:40;;;;;;;4.72;1.55;;;;;;;14.79;64.56;97182.53;5044067;28;20075;-65
2022/09/20 12:16:14;;;;;;;4.85;1.40;;;;;;;15.01;65.79;97178.72;5040057;28;20041;-68
2022/09/20 12:19:01;;;;;;;3.70;1.23;;;;;;;14.99;62.85;97181.09;5044090;28;20183;-66
2022/09/20 12:21:27;;;;;;;3.63;1.17;;;;;;;14.13;64.69;97194.13;5031114;28;20053;-64
2022/09/20 12:23:55;;;;;;;2.10;1.00;;;;;;;14.21;64.29;97189.50;5023225;28;20123;-67
2022/09/20 12:26:20;;;;;;;6.78;1.48;;;;;;;13.89;63.58;97190.72;5025051;28;20228;-66